createdAt,value
2023-04-13T05:01:26.815Z,0.82
2023-04-13T05:06:40.972Z,1.17
2023-04-13T05:11:44.901Z,0.70
2023-04-13T05:16:51.103Z,0.90
2023-04-13T05:22:15.507Z,1.02
2023-04-13T05:27:25.192Z,0.93
2023-04-13T05:32:29.348Z,0.80
2023-04-13T05:37:34.213Z,0.80
2023-04-13T05:42:36.938Z,0.77
2023-04-13T05:52:47.149Z,1.10
2023-04-13T05:57:48.772Z,0.73
2023-04-13T06:02:51.696Z,1.00
2023-04-13T06:07:53.960Z,0.82
2023-04-13T06:12:55.668Z,0.80
2023-04-13T06:17:57.237Z,0.93
2023-04-13T06:22:58.938Z,1.33
2023-04-13T06:33:06.230Z,1.05
2023-04-13T06:38:10.153Z,0.93
2023-04-13T06:43:29.483Z,1.10
2023-04-13T06:48:50.556Z,1.10
2023-04-13T06:53:56.044Z,0.85
2023-04-13T06:59:02.646Z,1.00
2023-04-13T07:04:07.658Z,0.80
2023-04-13T07:09:10.083Z,1.00
2023-04-13T07:14:11.931Z,1.53
2023-04-13T07:19:14.073Z,1.40
2023-04-13T07:24:15.925Z,1.00
2023-04-13T07:29:19.388Z,1.15
2023-04-13T07:34:27.329Z,1.13
2023-04-13T07:39:29.200Z,1.30
2023-04-13T07:44:31.106Z,0.90
2023-04-13T07:49:32.767Z,1.03
2023-04-13T07:54:36.348Z,1.10
2023-04-13T07:59:40.926Z,0.82
2023-04-13T08:04:44.583Z,1.00
2023-04-13T08:09:50.038Z,1.33
2023-04-13T08:14:51.686Z,2.45
2023-04-13T08:19:54.320Z,1.02
2023-04-13T08:24:56.500Z,1.20
2023-04-13T08:30:01.837Z,1.02
2023-04-13T08:35:11.590Z,0.97
2023-04-13T08:40:14.017Z,0.77
2023-04-13T08:45:18.508Z,1.25
2023-04-13T08:50:22.715Z,1.10
2023-04-13T08:55:29.362Z,1.08
2023-04-13T09:00:35.810Z,1.00
2023-04-13T09:05:42.093Z,1.35
2023-04-13T09:10:44.809Z,0.80
2023-04-13T09:15:50.820Z,1.25
2023-04-13T09:20:59.939Z,1.45
2023-04-13T09:31:08.673Z,1.17
2023-04-13T09:36:11.592Z,1.27
2023-04-13T09:41:13.131Z,1.70
2023-04-13T09:46:14.850Z,1.05
2023-04-13T09:51:16.931Z,1.77
2023-04-13T09:56:20.353Z,1.33
2023-04-13T10:01:23.119Z,1.10
2023-04-13T10:06:24.771Z,1.20
2023-04-13T10:11:26.296Z,0.98
2023-04-13T10:16:28.113Z,1.10
2023-04-13T10:21:36.187Z,1.17
2023-04-13T10:26:38.725Z,1.83
2023-04-13T10:36:43.408Z,1.17
2023-04-13T10:41:44.985Z,1.38
2023-04-13T10:46:50.599Z,1.30
2023-04-13T10:51:52.176Z,1.23
2023-04-13T10:57:01.636Z,2.75
2023-04-13T11:02:10.877Z,1.08
2023-04-13T11:07:18.153Z,1.63
2023-04-13T11:12:19.960Z,1.00
2023-04-13T11:17:21.688Z,1.00
2023-04-13T11:22:25.496Z,1.03
2023-04-13T11:27:27.141Z,1.13
2023-04-13T11:32:28.645Z,1.00
2023-04-13T11:37:34.573Z,1.00
2023-04-13T11:42:41.293Z,1.20
2023-04-13T11:47:43.795Z,1.20
2023-04-13T11:57:53.803Z,1.45
2023-04-13T12:03:02.438Z,1.08
2023-04-13T12:08:05.282Z,1.17
2023-04-13T12:23:25.113Z,1.00
2023-04-13T12:28:37.430Z,1.02
2023-04-13T12:33:39.851Z,1.10
2023-04-13T12:38:41.479Z,1.20
2023-04-13T12:43:42.925Z,1.20
2023-04-13T12:48:44.414Z,1.02
2023-04-13T12:53:46.127Z,1.30
2023-04-13T12:58:48.523Z,1.40
2023-04-13T13:03:50.322Z,1.10
2023-04-13T13:08:51.831Z,1.27
2023-04-13T13:13:53.256Z,1.10
2023-04-13T13:18:54.712Z,1.23
2023-04-13T13:23:56.159Z,1.27
2023-04-13T13:28:57.864Z,1.30
2023-04-13T13:33:59.709Z,1.20
2023-04-13T13:39:01.323Z,1.00
2023-04-13T13:44:03.106Z,1.43
2023-04-13T13:49:04.868Z,1.00
2023-04-13T13:54:26.732Z,1.30
2023-04-13T13:59:28.165Z,1.20
2023-04-13T14:04:29.608Z,1.40
2023-04-13T14:09:31.101Z,1.13
2023-04-13T14:14:32.532Z,1.30
2023-04-13T14:19:34.540Z,1.10
2023-04-13T14:24:36.140Z,1.48
2023-04-13T14:29:37.610Z,1.47
2023-04-13T14:34:39.054Z,1.30
2023-04-13T14:39:40.877Z,1.27
2023-04-13T14:44:42.970Z,1.23
2023-04-13T14:49:44.868Z,1.30
2023-04-13T14:54:46.547Z,1.30
2023-04-13T15:04:53.152Z,1.37
2023-04-13T15:09:55.253Z,1.30
2023-04-13T15:14:56.669Z,1.60
2023-04-13T15:19:58.264Z,1.10
2023-04-13T15:25:00.240Z,1.13
2023-04-13T15:30:03.289Z,1.10
2023-04-13T15:35:05.669Z,1.20
2023-04-13T15:40:07.974Z,1.10
2023-04-13T15:45:09.958Z,1.20
2023-04-13T15:50:11.700Z,1.10
2023-04-13T15:55:13.226Z,1.10
2023-04-13T16:00:15.322Z,1.25
2023-04-13T16:05:18.185Z,1.17
2023-04-13T16:10:19.941Z,1.35
2023-04-13T16:15:22.776Z,1.63
2023-04-13T16:20:28.236Z,1.42
2023-04-13T16:25:30.649Z,1.10
2023-04-13T16:30:32.849Z,1.35
2023-04-13T16:35:34.301Z,1.33
2023-04-13T16:40:36.291Z,1.60
2023-04-13T16:45:37.825Z,1.30
2023-04-13T16:50:39.386Z,1.33
2023-04-13T16:55:40.885Z,1.00
2023-04-13T17:00:42.535Z,1.60
2023-04-13T17:05:43.957Z,1.20
2023-04-13T17:10:46.132Z,1.08
2023-04-13T17:15:47.719Z,1.10
2023-04-13T17:20:56.270Z,0.90
2023-04-13T17:25:57.776Z,2.03
2023-04-13T17:30:59.219Z,0.93
2023-04-13T17:36:00.981Z,1.35
2023-04-13T17:41:02.480Z,1.90
2023-04-13T17:46:04.262Z,3.88
2023-04-13T17:51:11.416Z,3.47
2023-04-13T17:56:17.569Z,5.03
2023-04-13T18:01:19.117Z,2.35
2023-04-13T18:06:20.732Z,1.58
2023-04-13T18:11:22.165Z,1.90
2023-04-13T18:16:25.288Z,1.83
2023-04-13T18:21:27.528Z,2.20
2023-04-13T18:26:29.082Z,2.53
2023-04-13T18:31:30.904Z,3.17
2023-04-13T18:36:33.426Z,2.57
2023-04-13T18:41:34.980Z,2.50
2023-04-13T18:46:36.454Z,2.50
2023-04-13T18:51:38.702Z,2.25
2023-04-13T18:56:40.624Z,2.75
2023-04-13T19:01:42.101Z,3.10
2023-04-13T19:06:43.635Z,3.25
2023-04-13T19:11:47.481Z,2.00
2023-04-13T19:16:52.279Z,2.53
2023-04-13T19:21:57.169Z,2.70
2023-04-13T19:26:58.782Z,3.58
2023-04-13T19:32:00.302Z,2.70
2023-04-13T19:37:01.903Z,2.38
2023-04-13T19:42:03.501Z,2.03
2023-04-13T19:47:04.986Z,2.35
2023-04-13T19:52:06.441Z,2.10
2023-04-13T19:57:08.162Z,1.73
2023-04-13T20:02:09.834Z,1.88
2023-04-13T20:07:11.357Z,1.90
2023-04-13T20:12:12.936Z,1.77
2023-04-13T20:17:16.118Z,2.20
2023-04-13T20:22:18.212Z,2.55
2023-04-13T20:27:23.572Z,3.10
2023-04-13T20:32:25.221Z,3.05
2023-04-13T20:37:26.731Z,3.10
2023-04-13T20:42:30.486Z,3.40
2023-04-13T20:47:32.023Z,3.55
2023-04-13T20:52:33.654Z,3.10
2023-04-13T20:57:35.137Z,2.42
2023-04-13T21:02:36.768Z,2.45
2023-04-13T21:07:40.261Z,2.38
2023-04-13T21:12:41.690Z,2.63
2023-04-13T21:17:43.205Z,2.70
2023-04-13T21:22:44.667Z,3.60
2023-04-13T21:27:46.164Z,3.85
2023-04-13T21:32:47.702Z,4.93
2023-04-13T21:37:49.388Z,4.18
2023-04-13T21:42:50.851Z,3.50
2023-04-13T21:47:53.751Z,3.40
2023-04-13T21:52:55.940Z,3.20
2023-04-13T21:57:57.439Z,3.60
